createdAt,value
2019-01-29T00:00:30.805Z,96156.53
2019-01-29T00:05:33.986Z,96159.16
2019-01-29T00:10:37.275Z,96161.88
2019-01-29T00:15:40.559Z,96172.67
2019-01-29T00:20:43.867Z,96176.77
2019-01-29T00:25:47.062Z,96185.95
2019-01-29T00:30:50.245Z,96194.20
2019-01-29T00:35:53.485Z,96203.30
2019-01-29T00:40:56.667Z,96211.33
2019-01-29T00:45:59.910Z,96210.51
2019-01-29T00:51:04.138Z,96216.53
2019-01-29T00:56:07.326Z,96224.11
2019-01-29T01:01:10.525Z,96234.53
2019-01-29T01:06:13.809Z,96237.33
2019-01-29T01:11:17.185Z,96239.58
2019-01-29T01:16:20.376Z,96256.06
2019-01-29T01:21:23.576Z,96266.17
2019-01-29T01:26:26.829Z,96283.85
2019-01-29T01:31:29.984Z,96292.52
2019-01-29T01:36:33.264Z,96297.53
2019-01-29T01:41:36.461Z,96304.64
2019-01-29T01:46:39.757Z,96303.86
2019-01-29T01:51:42.952Z,96314.14
2019-01-29T01:56:46.186Z,96315.55
2019-01-29T02:01:49.395Z,96328.00
2019-01-29T02:06:52.667Z,96326.47
2019-01-29T02:11:55.925Z,96335.05
2019-01-29T02:16:59.160Z,96342.48
2019-01-29T02:22:02.409Z,96354.17
2019-01-29T02:27:05.813Z,96365.95
2019-01-29T02:32:08.996Z,96373.91
2019-01-29T02:37:12.279Z,96378.02
2019-01-29T02:42:15.469Z,96392.35
2019-01-29T02:47:18.718Z,96396.62
2019-01-29T02:52:21.939Z,96394.47
2019-01-29T02:57:25.123Z,96395.41
2019-01-29T03:02:28.331Z,96410.16
2019-01-29T03:07:31.542Z,96410.99
2019-01-29T03:12:34.771Z,96411.11
2019-01-29T03:17:37.973Z,96419.61
2019-01-29T03:22:41.205Z,96426.19
2019-01-29T03:27:44.508Z,96436.52
2019-01-29T03:32:47.797Z,96445.47
2019-01-29T03:37:51.053Z,96452.67
2019-01-29T03:42:54.279Z,96453.10
2019-01-29T03:47:57.704Z,96456.53
2019-01-29T03:53:01.147Z,96465.72
2019-01-29T03:58:04.513Z,96469.77
2019-01-29T04:03:07.864Z,96475.73
2019-01-29T04:08:11.267Z,96475.28
2019-01-29T04:13:14.593Z,96486.47
2019-01-29T04:18:18.113Z,96490.70
2019-01-29T04:23:21.367Z,96492.59
2019-01-29T04:28:24.785Z,96496.09
2019-01-29T04:33:28.143Z,96503.95
2019-01-29T04:38:31.389Z,96512.75
2019-01-29T04:43:34.666Z,96517.59
2019-01-29T04:48:37.914Z,96517.48
2019-01-29T04:53:41.118Z,96513.73
2019-01-29T04:58:44.321Z,96514.67
2019-01-29T05:03:47.526Z,96524.08
2019-01-29T05:08:50.714Z,96521.09
2019-01-29T05:13:53.925Z,96532.87
2019-01-29T05:18:57.146Z,96529.71
2019-01-29T05:24:06.599Z,96536.62
2019-01-29T05:29:03.563Z,96545.72
2019-01-29T05:34:06.775Z,96549.95
2019-01-29T05:39:10.434Z,96555.02
2019-01-29T05:44:14.708Z,96559.00
2019-01-29T05:49:17.883Z,96565.17
2019-01-29T05:54:21.100Z,96573.83
2019-01-29T05:59:25.367Z,96574.22
2019-01-29T06:04:28.577Z,96575.30
2019-01-29T06:09:31.765Z,96582.07
2019-01-29T06:14:34.954Z,96592.77
2019-01-29T06:19:38.133Z,96599.47
2019-01-29T06:24:41.317Z,96623.13
2019-01-29T06:29:44.505Z,96625.09
2019-01-29T06:34:47.797Z,96632.80
2019-01-29T06:39:51.016Z,96642.11
2019-01-29T06:44:54.207Z,96643.70
2019-01-29T06:49:57.385Z,96651.83
2019-01-29T06:55:00.608Z,96661.80
2019-01-29T07:00:04.146Z,96658.81
2019-01-29T07:05:07.651Z,96672.21
2019-01-29T07:10:11.952Z,96680.89
2019-01-29T07:16:24.498Z,96690.69
2019-01-29T07:21:27.693Z,96703.91
2019-01-29T07:26:30.887Z,96707.90
2019-01-29T07:31:34.135Z,96712.14
2019-01-29T07:36:37.369Z,96718.50
2019-01-29T07:41:40.606Z,96719.78
2019-01-29T07:46:43.983Z,96729.34
2019-01-29T07:51:47.299Z,96724.03
2019-01-29T07:56:50.586Z,96725.11
2019-01-29T08:01:53.768Z,96728.59
2019-01-29T08:06:56.966Z,96732.09
2019-01-29T08:12:00.165Z,96733.52
2019-01-29T08:17:03.373Z,96731.30
2019-01-29T08:22:06.574Z,96729.05
2019-01-29T08:27:09.795Z,96732.10
2019-01-29T08:32:12.985Z,96735.81
2019-01-29T08:37:16.212Z,96731.75
2019-01-29T08:42:19.427Z,96733.80
2019-01-29T08:47:22.725Z,96737.97
2019-01-29T08:52:26.062Z,96742.41
2019-01-29T08:57:29.396Z,96738.28
2019-01-29T09:02:32.634Z,96737.44
2019-01-29T09:07:35.826Z,96736.19
2019-01-29T09:12:39.016Z,96738.40
2019-01-29T09:17:42.200Z,96740.98
2019-01-29T09:22:45.386Z,96747.05
2019-01-29T09:27:48.560Z,96741.09
2019-01-29T09:32:51.770Z,96739.85
2019-01-29T09:37:54.966Z,96745.60
2019-01-29T09:42:58.181Z,96748.17
2019-01-29T09:48:01.396Z,96757.15
2019-01-29T09:53:04.706Z,96751.56
2019-01-29T09:58:07.914Z,96756.88
2019-01-29T10:03:11.114Z,96751.86
2019-01-29T10:08:14.342Z,96755.85
2019-01-29T10:13:17.746Z,96749.41
2019-01-29T10:18:20.976Z,96743.26
2019-01-29T10:23:24.246Z,96740.13
2019-01-29T10:28:27.442Z,96729.13
2019-01-29T10:33:30.646Z,96726.72
2019-01-29T10:38:33.977Z,96725.53
2019-01-29T10:43:37.231Z,96715.95
2019-01-29T10:48:40.461Z,96711.23
2019-01-29T10:53:43.651Z,96699.34
2019-01-29T10:58:46.894Z,96686.67
2019-01-29T11:03:50.083Z,96689.45
2019-01-29T11:08:53.282Z,96691.16
2019-01-29T11:13:56.510Z,96672.11
2019-01-29T11:19:03.460Z,96677.98
2019-01-29T11:24:03.198Z,96672.27
2019-01-29T11:29:06.462Z,96663.98
2019-01-29T11:34:09.765Z,96665.09
2019-01-29T11:39:12.982Z,96657.45
2019-01-29T11:44:16.196Z,96653.45
2019-01-29T11:49:19.421Z,96651.23
2019-01-29T11:54:22.975Z,96648.89
2019-01-29T11:59:26.294Z,96651.36
2019-01-29T12:04:29.471Z,96626.59
2019-01-29T12:09:32.793Z,96630.84
2019-01-29T12:14:36.010Z,96630.56
2019-01-29T12:19:39.290Z,96622.49
2019-01-29T12:24:42.546Z,96616.84
2019-01-29T12:29:45.841Z,96618.81
2019-01-29T12:34:49.156Z,96612.47
2019-01-29T12:39:52.350Z,96602.77
2019-01-29T12:44:55.643Z,96602.14
2019-01-29T12:49:59.051Z,96593.89
2019-01-29T12:55:02.334Z,96591.39
2019-01-29T13:00:07.185Z,96597.63
2019-01-29T13:05:11.417Z,96592.16
2019-01-29T13:10:17.694Z,96607.75
2019-01-29T13:15:23.266Z,96610.65
2019-01-29T13:20:26.552Z,96604.78
2019-01-29T13:25:30.003Z,96597.28
2019-01-29T13:30:34.648Z,96592.67
2019-01-29T13:35:38.024Z,96580.28
2019-01-29T13:40:41.442Z,96576.08
2019-01-29T13:45:44.811Z,96574.91
2019-01-29T13:50:53.671Z,96573.20
2019-01-29T13:55:56.988Z,96567.90
2019-01-29T14:01:00.344Z,96569.27
2019-01-29T14:06:03.644Z,96559.61
2019-01-29T14:11:07.057Z,96552.98
2019-01-29T14:16:12.915Z,96554.13
2019-01-29T14:21:16.303Z,96548.52
2019-01-29T14:26:19.687Z,96547.94
2019-01-29T14:31:23.123Z,96534.86
2019-01-29T14:36:26.865Z,96537.14
2019-01-29T14:41:30.303Z,96518.70
2019-01-29T14:46:33.743Z,96529.80
2019-01-29T14:51:37.170Z,96525.78
2019-01-29T14:56:40.462Z,96525.47
2019-01-29T15:01:44.019Z,96534.70
2019-01-29T15:06:47.073Z,96530.03
2019-01-29T15:11:50.373Z,96522.91
2019-01-29T15:16:58.782Z,96520.34
2019-01-29T15:22:02.131Z,96520.53
2019-01-29T15:27:06.107Z,96515.48
2019-01-29T15:32:08.998Z,96511.06
2019-01-29T15:37:12.357Z,96500.14
2019-01-29T15:42:15.789Z,96496.03
2019-01-29T15:47:19.095Z,96498.72
2019-01-29T15:52:22.422Z,96505.13
2019-01-29T15:57:25.770Z,96504.56
2019-01-29T16:02:29.058Z,96504.34
2019-01-29T16:07:32.419Z,96502.17
2019-01-29T16:12:35.839Z,96505.78
2019-01-29T16:17:39.182Z,96503.80
2019-01-29T16:22:42.682Z,96500.02
2019-01-29T16:27:46.157Z,96505.52
2019-01-29T16:32:49.643Z,96499.98
2019-01-29T16:37:53.114Z,96491.78
2019-01-29T16:42:56.741Z,96488.95
2019-01-29T16:48:00.152Z,96493.84
2019-01-29T16:53:03.692Z,96490.83
2019-01-29T16:58:07.221Z,96485.16
2019-01-29T17:03:10.586Z,96482.58
2019-01-29T17:08:13.962Z,96481.05
2019-01-29T17:13:17.400Z,96473.60
2019-01-29T17:18:20.864Z,96465.31
2019-01-29T17:23:24.313Z,96463.06
2019-01-29T17:28:27.720Z,96452.87
2019-01-29T17:33:31.158Z,96455.98
2019-01-29T17:38:34.623Z,96457.99
2019-01-29T17:43:38.102Z,96456.15
2019-01-29T17:48:41.597Z,96442.63
2019-01-29T17:53:45.021Z,96443.31
2019-01-29T17:58:48.430Z,96443.77
2019-01-29T18:03:51.913Z,96438.16
2019-01-29T18:08:55.426Z,96427.08
2019-01-29T18:13:58.916Z,96430.59
2019-01-29T18:19:02.340Z,96424.02
2019-01-29T18:24:05.829Z,96409.91
2019-01-29T18:29:09.280Z,96402.81
2019-01-29T18:34:12.766Z,96404.69
2019-01-29T18:39:16.177Z,96398.52
2019-01-29T18:44:19.651Z,96395.77
2019-01-29T18:49:23.101Z,96392.69
2019-01-29T18:54:26.442Z,96383.56
2019-01-29T18:59:29.937Z,96373.00
2019-01-29T19:04:33.431Z,96363.14
2019-01-29T19:09:36.830Z,96355.24
2019-01-29T19:14:40.227Z,96346.09
2019-01-29T19:19:43.535Z,96341.96
2019-01-29T19:24:46.885Z,96333.39
2019-01-29T19:29:50.290Z,96323.42
2019-01-29T19:34:53.693Z,96317.59
2019-01-29T19:39:57.025Z,96316.05
2019-01-29T19:45:00.386Z,96307.75
2019-01-29T19:50:04.232Z,96306.99
2019-01-29T19:55:07.582Z,96305.56
2019-01-29T20:00:15.736Z,96302.42
2019-01-29T20:05:19.096Z,96296.13
2019-01-29T20:10:22.549Z,96295.30
2019-01-29T20:15:26.003Z,96289.94
2019-01-29T20:20:32.612Z,96278.15
2019-01-29T20:25:35.989Z,96278.20
2019-01-29T20:30:39.866Z,96275.03
2019-01-29T20:35:43.294Z,96265.59
2019-01-29T20:40:46.680Z,96251.36
2019-01-29T20:45:50.017Z,96245.47
2019-01-29T20:50:53.415Z,96238.70
2019-01-29T20:55:56.778Z,96230.34
2019-01-29T21:01:00.061Z,96222.11
2019-01-29T21:06:03.459Z,96212.87
2019-01-29T21:11:06.779Z,96208.55
2019-01-29T21:16:10.130Z,96206.25
2019-01-29T21:21:13.595Z,96197.41
2019-01-29T21:26:16.993Z,96190.78
2019-01-29T21:31:20.285Z,96181.50
2019-01-29T21:36:23.606Z,96175.55
2019-01-29T21:41:26.902Z,96168.23
2019-01-29T21:46:30.193Z,96169.65
2019-01-29T21:51:33.434Z,96162.41
2019-01-29T21:56:36.645Z,96161.25
2019-01-29T22:01:39.955Z,96157.31
2019-01-29T22:06:43.205Z,96154.23
2019-01-29T22:11:46.449Z,96139.65
2019-01-29T22:16:49.694Z,96144.76
2019-01-29T22:21:52.903Z,96138.75
2019-01-29T22:26:56.202Z,96129.93
2019-01-29T22:31:59.392Z,96131.20
2019-01-29T22:37:02.590Z,96122.41
2019-01-29T22:42:05.770Z,96113.14
2019-01-29T22:47:09.021Z,96105.59
2019-01-29T22:52:12.222Z,96096.36
2019-01-29T22:57:15.606Z,96087.91
2019-01-29T23:02:18.734Z,96080.45
2019-01-29T23:07:25.883Z,96072.47
2019-01-29T23:12:29.152Z,96061.55
2019-01-29T23:17:32.362Z,96058.24
2019-01-29T23:22:35.697Z,96053.69
2019-01-29T23:27:38.887Z,96041.00
2019-01-29T23:32:42.068Z,96035.27
2019-01-29T23:37:45.298Z,96029.64
2019-01-29T23:42:48.488Z,96025.38
2019-01-29T23:47:55.961Z,96022.75
2019-01-29T23:52:59.177Z,96016.84
2019-01-29T23:58:02.483Z,96010.48
